Time;durP1;ratioP1;P1;durP2;ratioP2;P2;SDS_P1;SDS_P2;PMS_P1;PMS_P2;Temp;Humidity;BMP_temperature;BMP_pressure;BME280_temperature;BME280_humidity;BME280_pressure;Samples;Min_cycle;Max_cycle;Signal;HPM_P1;HPM_P2
2021/10/28 00:12:20;;;;;;;7.93;6.88;;;;;;;6.70;76.74;99458.16;2618287;54;20054;-69
2021/10/28 00:14:56;;;;;;;8.43;6.45;;;;;;;6.66;76.48;99456.81;2617889;47;20078;-69
2021/10/28 00:17:40;;;;;;;8.98;6.65;;;;;;;6.59;76.69;99447.88;2617934;47;20031;-68
2021/10/28 00:20:11;;;;;;;8.50;7.60;;;;;;;6.64;76.82;99450.06;2618854;54;20046;-68
2021/10/28 00:22:41;;;;;;;8.68;6.45;;;;;;;6.58;76.82;99454.13;2618098;54;20046;-68
2021/10/28 00:25:11;;;;;;;8.13;6.43;;;;;;;6.61;76.76;99450.34;2618741;54;20059;-69
2021/10/28 00:27:41;;;;;;;7.50;6.68;;;;;;;6.61;77.03;99445.09;2618845;39;20418;-68
2021/10/28 00:30:14;;;;;;;7.97;6.80;;;;;;;6.57;77.17;99438.50;2618930;39;20445;-68
2021/10/28 00:32:43;;;;;;;9.13;7.35;;;;;;;6.63;76.93;99437.91;2620132;54;20046;-68
2021/10/28 00:35:13;;;;;;;8.20;6.78;;;;;;;6.59;76.93;99437.38;2625668;54;20588;-70
2021/10/28 00:40:16;;;;;;;11.48;7.43;;;;;;;6.52;76.66;99433.69;2624365;54;20557;-74
2021/10/28 00:42:46;;;;;;;8.68;6.15;;;;;;;6.44;76.85;99431.00;2624157;54;20034;-74
2021/10/28 00:45:18;;;;;;;8.23;6.57;;;;;;;6.39;77.05;99428.00;2623774;54;20030;-74
2021/10/28 00:47:48;;;;;;;8.45;6.10;;;;;;;6.46;77.45;99429.06;2624548;47;20731;-75
2021/10/28 00:50:17;;;;;;;13.32;6.95;;;;;;;6.43;76.88;99434.59;2623620;54;20019;-74
2021/10/28 00:52:47;;;;;;;9.82;6.50;;;;;;;6.37;77.00;99429.97;2623432;54;20029;-74
2021/10/28 00:55:17;;;;;;;5.70;5.15;;;;;;;6.42;76.78;99422.47;2624688;54;20049;-74
2021/10/28 00:57:47;;;;;;;7.40;5.55;;;;;;;6.38;76.59;99418.50;2625535;54;20035;-74
2021/10/28 01:00:21;;;;;;;10.18;5.53;;;;;;;6.34;77.17;99417.13;2625878;51;20034;-74
2021/10/28 01:02:51;;;;;;;8.00;5.60;;;;;;;6.37;77.16;99415.03;2625435;54;20065;-75
2021/10/28 01:05:21;;;;;;;8.23;5.80;;;;;;;6.31;76.68;99414.81;2625641;54;20029;-73
2021/10/28 01:07:51;;;;;;;7.75;6.00;;;;;;;6.25;76.35;99424.13;2625354;54;20068;-73
2021/10/28 01:10:21;;;;;;;9.07;6.20;;;;;;;6.24;76.81;99422.44;2625721;54;20063;-74
2021/10/28 01:12:51;;;;;;;10.25;7.43;;;;;;;6.20;76.70;99416.69;2625078;54;20057;-74
2021/10/28 01:15:23;;;;;;;8.15;6.22;;;;;;;6.14;76.68;99416.44;2621784;54;20043;-73
2021/10/28 01:17:52;;;;;;;10.63;6.35;;;;;;;6.10;76.60;99421.16;2621377;54;20060;-74
2021/10/28 01:20:25;;;;;;;8.15;5.50;;;;;;;6.14;77.31;99419.06;2623310;54;20026;-73
2021/10/28 01:22:54;;;;;;;7.47;5.78;;;;;;;6.27;77.29;99418.69;2628994;54;20011;-74
2021/10/28 01:25:24;;;;;;;12.25;6.40;;;;;;;6.37;76.67;99412.41;2628071;54;20033;-74
2021/10/28 01:27:54;;;;;;;7.90;6.05;;;;;;;6.30;76.56;99411.34;2627941;54;20054;-74
2021/10/28 01:30:23;;;;;;;7.80;5.50;;;;;;;6.22;76.40;99405.22;2623504;54;20018;-74
2021/10/28 01:32:53;;;;;;;6.43;5.20;;;;;;;6.16;76.96;99406.59;2624216;54;20155;-75
2021/10/28 01:35:26;;;;;;;8.50;5.85;;;;;;;6.10;76.94;99402.78;2625001;46;20124;-73
2021/10/28 01:37:55;;;;;;;7.35;5.43;;;;;;;6.08;76.79;99401.28;2624493;54;20042;-74
2021/10/28 01:40:25;;;;;;;10.40;5.47;;;;;;;6.09;77.42;99401.16;2624536;54;20038;-74
2021/10/28 01:42:55;;;;;;;6.45;4.75;;;;;;;6.11;77.23;99395.75;2625081;54;20060;-73
2021/10/28 01:45:24;;;;;;;9.07;5.40;;;;;;;6.24;77.76;99403.25;2624098;54;20053;-72
2021/10/28 01:47:54;;;;;;;8.82;5.70;;;;;;;6.37;77.78;99395.84;2618426;54;20031;-72
2021/10/28 01:50:28;;;;;;;7.78;6.00;;;;;;;6.45;77.36;99393.28;2622924;54;20046;-72
2021/10/28 01:52:58;;;;;;;6.30;5.45;;;;;;;6.50;77.55;99393.63;2624190;54;20031;-72
2021/10/28 01:55:28;;;;;;;7.85;5.78;;;;;;;6.55;77.37;99394.00;2624510;54;20022;-72
2021/10/28 01:57:58;;;;;;;6.82;5.35;;;;;;;6.52;76.66;99396.91;2625897;54;20041;-70
2021/10/28 02:00:27;;;;;;;8.23;5.47;;;;;;;6.37;76.56;99386.16;2625174;54;20030;-72
2021/10/28 02:02:58;;;;;;;7.95;5.15;;;;;;;6.28;76.62;99386.22;2625735;54;20099;-70
2021/10/28 02:05:31;;;;;;;10.20;6.70;;;;;;;6.23;76.46;99381.41;2624762;54;20054;-71
2021/10/28 02:08:01;;;;;;;12.85;6.65;;;;;;;6.09;76.60;99380.16;2629557;39;20403;-71
2021/10/28 02:10:30;;;;;;;10.32;7.32;;;;;;;5.96;76.46;99382.31;2625960;54;20034;-72
2021/10/28 02:13:01;;;;;;;13.75;7.05;;;;;;;5.87;77.43;99383.16;2626461;39;20799;-72
2021/10/28 02:15:31;;;;;;;12.55;7.43;;;;;;;5.98;77.44;99376.91;2625110;39;20450;-73
2021/10/28 02:18:01;;;;;;;11.20;7.53;;;;;;;5.96;77.10;99374.44;2626084;54;20066;-72
2021/10/28 02:20:33;;;;;;;11.65;7.57;;;;;;;5.91;77.49;99369.59;2626402;54;20031;-73
2021/10/28 02:23:03;;;;;;;13.73;6.97;;;;;;;5.83;77.24;99373.94;2625538;39;20463;-73
2021/10/28 02:25:32;;;;;;;12.88;6.45;;;;;;;5.75;77.96;99372.06;2625288;54;20616;-72
2021/10/28 02:28:02;;;;;;;13.98;7.50;;;;;;;5.81;77.98;99370.66;2625221;47;20030;-72
2021/10/28 02:30:32;;;;;;;10.38;6.65;;;;;;;5.77;77.75;99364.88;2626021;54;20014;-72
2021/10/28 02:33:02;;;;;;;9.30;6.88;;;;;;;5.72;77.75;99361.88;2626474;54;20561;-72
2021/10/28 02:35:34;;;;;;;10.05;7.25;;;;;;;5.71;77.43;99360.19;2624393;51;20568;-73
2021/10/28 02:38:04;;;;;;;8.27;6.68;;;;;;;5.61;77.32;99362.91;2620578;54;20023;-72
2021/10/28 02:40:34;;;;;;;7.80;5.93;;;;;;;5.63;77.51;99357.50;2620560;54;20022;-73
2021/10/28 02:43:04;;;;;;;9.40;5.97;;;;;;;5.60;77.31;99355.19;2620978;54;20042;-72
2021/10/28 02:45:33;;;;;;;9.43;6.32;;;;;;;5.62;78.33;99353.22;2620942;46;20141;-72
2021/10/28 02:48:03;;;;;;;8.95;6.53;;;;;;;5.71;77.71;99358.44;2620467;54;20034;-72
2021/10/28 02:50:35;;;;;;;9.68;6.68;;;;;;;5.60;77.34;99365.69;2620656;54;20619;-73
2021/10/28 02:53:05;;;;;;;9.20;6.07;;;;;;;5.53;77.51;99351.50;2620301;54;20844;-73
2021/10/28 02:55:35;;;;;;;9.30;6.32;;;;;;;5.51;77.34;99356.03;2619924;54;20735;-73
2021/10/28 02:58:05;;;;;;;10.57;6.25;;;;;;;5.45;77.58;99357.47;2622942;54;20030;-73
2021/10/28 03:00:35;;;;;;;12.68;6.22;;;;;;;5.42;77.47;99350.69;2625562;54;20027;-72
2021/10/28 03:03:05;;;;;;;9.27;6.47;;;;;;;5.51;77.46;99353.41;2626823;39;20446;-72
2021/10/28 03:05:37;;;;;;;8.38;5.72;;;;;;;5.56;77.73;99351.19;2625326;54;20022;-72
2021/10/28 03:08:07;;;;;;;9.80;6.60;;;;;;;5.57;77.50;99347.59;2625545;46;20026;-71
2021/10/28 03:10:36;;;;;;;11.70;6.60;;;;;;;5.58;77.57;99347.44;2625558;54;20560;-71
2021/10/28 03:13:07;;;;;;;10.68;5.85;;;;;;;5.65;77.49;99347.69;2625343;54;20034;-71
2021/10/28 03:15:37;;;;;;;10.10;5.70;;;;;;;5.68;77.29;99355.28;2625687;46;20104;-71
2021/10/28 03:26:33;;;;;;;8.73;6.15;;;;;;;5.58;76.53;99349.25;2626562;39;20415;-71
2021/10/28 03:29:03;;;;;;;9.75;6.00;;;;;;;5.40;76.87;99346.59;2626040;46;20034;-71
2021/10/28 03:31:32;;;;;;;10.15;6.05;;;;;;;5.25;76.77;99338.38;2625721;54;20037;-71
2021/10/28 03:34:05;;;;;;;11.68;6.70;;;;;;;5.32;77.15;99341.25;2626139;54;20030;-71
2021/10/28 03:36:46;;;;;;;9.73;6.90;;;;;;;5.37;76.84;99339.84;2625670;54;20034;-72
2021/10/28 03:39:27;;;;;;;12.45;6.82;;;;;;;5.36;77.08;99346.06;2626839;31;20495;-73
2021/10/28 03:42:33;;;;;;;8.60;6.57;;;;;;;5.40;76.96;99339.56;2626715;47;20030;-74
2021/10/28 03:50:57;;;;;;;9.60;5.97;;;;;;;5.34;76.66;99345.38;2622246;46;20034;-72
2021/10/28 03:59:20;;;;;;;11.65;6.82;;;;;;;5.28;76.92;99345.97;2621798;54;20034;-73
2021/10/28 04:04:58;;;;;;;13.95;7.10;;;;;;;5.26;76.51;99347.06;2621608;54;20038;-73
2021/10/28 04:29:28;;;;;;;12.38;7.88;;;;;;;5.03;76.85;99349.25;2625368;47;20608;-72
2021/10/28 04:31:58;;;;;;;10.98;7.45;;;;;;;5.04;77.08;99350.91;2627088;39;20414;-73
2021/10/28 04:34:28;;;;;;;20.77;7.82;;;;;;;5.06;77.34;99346.31;2626486;54;20034;-74
2021/10/28 04:36:58;;;;;;;13.50;7.68;;;;;;;4.99;76.90;99346.09;2626401;54;20042;-75
2021/10/28 04:39:28;;;;;;;12.82;7.82;;;;;;;5.00;77.16;99352.16;2625548;47;20030;-72
2021/10/28 04:42:00;;;;;;;9.50;6.75;;;;;;;5.01;77.15;99345.94;2626039;39;20466;-73
2021/10/28 04:44:30;;;;;;;20.80;6.97;;;;;;;5.01;77.64;99344.13;2626144;54;20034;-74
2021/10/28 04:47:00;;;;;;;19.35;7.82;;;;;;;5.00;77.71;99337.25;2626015;54;20608;-70
2021/10/28 04:49:29;;;;;;;12.10;6.68;;;;;;;4.97;77.61;99350.63;2624720;46;20022;-71
2021/10/28 04:51:59;;;;;;;25.58;7.93;;;;;;;4.96;77.70;99347.19;2622586;54;20045;-71
2021/10/28 04:54:28;;;;;;;27.83;8.02;;;;;;;4.91;77.42;99351.22;2622598;54;20069;-72
2021/10/28 04:57:01;;;;;;;15.80;6.93;;;;;;;4.91;77.84;99351.22;2622396;47;20023;-72
2021/10/28 04:59:31;;;;;;;12.98;6.93;;;;;;;4.95;78.10;99349.97;2623180;54;20280;-72
2021/10/28 05:02:00;;;;;;;20.73;7.80;;;;;;;4.94;78.23;99348.31;2622667;54;20030;-71
2021/10/28 05:04:30;;;;;;;13.45;7.43;;;;;;;4.93;78.64;99344.03;2622904;54;20030;-73
2021/10/28 05:07:00;;;;;;;13.48;7.22;;;;;;;4.93;78.41;99352.72;2622711;47;20035;-71
2021/10/28 05:09:30;;;;;;;9.68;6.70;;;;;;;4.95;78.42;99342.09;2622730;54;20542;-72
2021/10/28 05:12:03;;;;;;;16.50;8.90;;;;;;;4.97;78.40;99348.00;2622408;54;20027;-72
2021/10/28 05:14:32;;;;;;;9.68;7.13;;;;;;;5.02;78.08;99345.81;2622190;54;20037;-72
2021/10/28 05:17:02;;;;;;;11.23;6.88;;;;;;;5.01;77.91;99345.94;2622169;54;20593;-72
2021/10/28 05:19:34;;;;;;;9.35;6.63;;;;;;;5.00;78.25;99342.50;2619977;54;20051;-73
2021/10/28 05:22:04;;;;;;;8.63;6.53;;;;;;;5.01;78.25;99343.31;2621277;54;20049;-73
2021/10/28 05:24:33;;;;;;;8.15;5.85;;;;;;;4.99;77.94;99346.09;2621947;54;20039;-73
2021/10/28 05:27:07;;;;;;;11.45;6.50;;;;;;;5.01;78.05;99344.13;2620183;39;20462;-72
2021/10/28 05:29:56;;;;;;;10.55;6.85;;;;;;;5.01;78.12;99341.50;2620435;47;20034;-73
2021/10/28 05:32:26;;;;;;;12.07;6.25;;;;;;;5.07;77.97;99340.13;2626594;39;20504;-74
2021/10/28 05:34:59;;;;;;;15.05;6.90;;;;;;;5.05;77.75;99344.69;2625547;54;20042;-72
2021/10/28 05:37:28;;;;;;;17.75;7.40;;;;;;;5.02;77.93;99335.31;2625350;54;20031;-74
2021/10/28 05:40:00;;;;;;;15.20;7.93;;;;;;;5.03;77.78;99330.91;2625529;54;20057;-74
2021/10/28 05:42:33;;;;;;;28.27;9.13;;;;;;;5.03;77.61;99333.53;2625704;47;20041;-75
2021/10/28 05:45:02;;;;;;;22.83;11.40;;;;;;;4.99;78.02;99330.38;2626017;54;20035;-74
2021/10/28 05:47:32;;;;;;;22.08;8.27;;;;;;;5.03;77.76;99326.50;2625754;54;20051;-71
2021/10/28 05:50:23;;;;;;;11.93;7.55;;;;;;;5.04;77.91;99327.31;2625844;54;20078;-72
2021/10/28 05:52:54;;;;;;;21.55;8.52;;;;;;;5.01;77.68;99332.84;2625121;54;20030;-71
2021/10/28 05:55:24;;;;;;;17.08;8.85;;;;;;;5.00;78.09;99331.19;2625091;54;20031;-71
2021/10/28 05:57:57;;;;;;;21.92;9.50;;;;;;;5.05;77.91;99336.81;2625339;50;20023;-71
2021/10/28 06:00:27;;;;;;;27.25;10.13;;;;;;;5.05;77.81;99332.41;2624326;54;20050;-71
2021/10/28 06:02:57;;;;;;;22.73;10.70;;;;;;;4.84;77.70;99343.09;2625953;54;20054;-71
2021/10/28 06:05:27;;;;;;;25.75;10.90;;;;;;;4.63;77.97;99338.06;2626525;54;20041;-71
2021/10/28 06:07:56;;;;;;;26.77;11.13;;;;;;;4.63;78.89;99332.00;2626138;54;20030;-72
2021/10/28 06:10:27;;;;;;;22.77;11.80;;;;;;;4.46;79.10;99328.31;2628348;39;20410;-74
2021/10/28 06:13:02;;;;;;;20.05;10.00;;;;;;;4.41;79.05;99322.69;2626657;54;20045;-74
2021/10/28 06:15:35;;;;;;;24.88;11.90;;;;;;;4.57;79.76;99316.84;2626809;54;20034;-75
2021/10/28 06:18:34;;;;;;;22.33;10.85;;;;;;;4.67;79.50;99323.69;2627035;54;20042;-74
2021/10/28 06:21:03;;;;;;;24.33;12.52;;;;;;;4.80;78.98;99326.00;2629942;54;20030;-76
2021/10/28 06:23:32;;;;;;;29.13;13.65;;;;;;;4.88;79.00;99320.06;2631589;54;20021;-77
2021/10/28 06:26:03;;;;;;;27.60;12.05;;;;;;;4.93;78.81;99320.44;2629460;54;20522;-74
2021/10/28 06:28:35;;;;;;;26.05;13.25;;;;;;;5.00;78.63;99318.09;2623542;54;20030;-73
2021/10/28 06:31:05;;;;;;;25.02;13.00;;;;;;;5.03;78.58;99328.28;2621150;54;20061;-74
2021/10/28 06:33:38;;;;;;;30.42;13.43;;;;;;;5.09;78.43;99330.31;2621641;54;20070;-74
2021/10/28 06:36:07;;;;;;;24.23;12.10;;;;;;;5.12;78.64;99330.84;2621545;54;20155;-74
2021/10/28 06:38:37;;;;;;;27.70;13.15;;;;;;;5.21;78.38;99329.16;2621877;54;20026;-70
2021/10/28 06:41:06;;;;;;;32.70;13.18;;;;;;;5.24;78.48;99326.25;2620540;39;20508;-71
2021/10/28 06:43:39;;;;;;;24.40;10.57;;;;;;;5.25;78.18;99317.41;2619024;54;20552;-71
2021/10/28 06:46:08;;;;;;;19.13;11.20;;;;;;;5.23;77.73;99322.00;2618455;54;20030;-71
2021/10/28 06:48:38;;;;;;;33.05;22.05;;;;;;;5.14;76.80;99317.59;2618995;39;20437;-72
2021/10/28 06:51:08;;;;;;;18.88;11.15;;;;;;;4.98;77.28;99320.88;2618661;54;20565;-72
2021/10/28 06:53:44;;;;;;;25.50;11.07;;;;;;;5.00;78.28;99324.16;2617704;47;20041;-71
2021/10/28 06:56:36;;;;;;;17.40;9.48;;;;;;;5.12;78.48;99327.41;2618654;54;20043;-71
2021/10/28 07:04:33;;;;;;;17.52;9.98;;;;;;;5.42;77.99;99327.09;2618761;54;20030;-71
2021/10/28 07:07:03;;;;;;;21.05;11.23;;;;;;;5.48;77.26;99325.72;2617977;47;20030;-71
2021/10/28 07:09:35;;;;;;;25.42;11.73;;;;;;;5.32;76.75;99336.00;2621327;39;20406;-73
2021/10/28 07:12:13;;;;;;;25.50;13.50;;;;;;;5.30;77.59;99340.56;2620175;54;20065;-72
2021/10/28 07:14:47;;;;;;;26.77;13.23;;;;;;;5.41;77.88;99338.56;2618031;39;20462;-73
2021/10/28 07:17:26;;;;;;;21.20;12.73;;;;;;;5.50;77.80;99342.09;2617365;54;20158;-73
2021/10/28 07:20:22;;;;;;;19.77;12.23;;;;;;;5.63;77.77;99344.38;2617147;51;20022;-71
2021/10/28 07:34:10;;;;;;;30.27;12.80;;;;;;;5.84;77.81;99350.19;2616556;47;20038;-71
2021/10/28 07:59:03;;;;;;;25.13;14.98;;;;;;;6.37;77.04;99344.13;2616800;54;20041;-73
2021/10/28 08:15:16;;;;;;;56.17;22.85;;;;;;;6.58;76.48;99338.53;2616860;54;20022;-71
2021/10/28 08:20:43;;;;;;;71.03;23.75;;;;;;;6.50;76.76;99348.16;2616673;54;20030;-70
2021/10/28 08:23:17;;;;;;;95.30;23.58;;;;;;;6.41;76.78;99337.59;2616964;54;20042;-70
2021/10/28 08:28:44;;;;;;;53.58;26.38;;;;;;;6.33;76.26;99331.47;2617437;46;20054;-71
2021/10/28 08:31:18;;;;;;;120.95;28.00;;;;;;;6.18;76.81;99332.00;2617365;54;20533;-71
2021/10/28 08:33:48;;;;;;;;;;;;;;;6.21;77.50;99330.88;2617724;47;20031;-71
2021/10/28 08:36:25;;;;;;;54.70;26.40;;;;;;;6.38;77.86;99314.25;2618366;54;19969;-71
2021/10/28 08:38:55;;;;;;;47.67;24.25;;;;;;;6.58;77.93;99320.16;2618909;39;20473;-72
2021/10/28 08:41:26;;;;;;;44.50;24.17;;;;;;;6.72;77.08;99316.13;2617959;54;20031;-72
2021/10/28 08:43:56;;;;;;;45.40;24.33;;;;;;;6.85;77.02;99315.69;2618082;46;20030;-72
2021/10/28 08:46:27;;;;;;;44.95;23.85;;;;;;;6.94;77.33;99309.53;2618652;54;20541;-71
2021/10/28 08:48:59;;;;;;;44.20;22.35;;;;;;;7.06;77.05;99313.53;2617704;47;20030;-74
2021/10/28 08:51:37;;;;;;;44.30;22.85;;;;;;;7.03;76.63;99305.13;2618415;54;20129;-71
2021/10/28 08:54:32;;;;;;;44.95;22.77;;;;;;;7.19;76.94;99307.81;2618534;54;20030;-74
2021/10/28 09:24:37;;;;;;;45.85;23.80;;;;;;;8.20;76.05;99283.97;2616552;54;20031;-71
2021/10/28 09:27:13;;;;;;;45.78;23.58;;;;;;;8.22;75.69;99282.00;2616833;47;20034;-72
2021/10/28 09:29:49;;;;;;;45.35;26.40;;;;;;;8.29;74.48;99279.53;2616832;54;20030;-72
2021/10/28 09:32:33;;;;;;;44.55;24.75;;;;;;;8.24;75.10;99285.28;2618783;54;20035;-72
2021/10/28 09:35:20;;;;;;;51.47;27.58;;;;;;;8.37;74.89;99285.66;2617900;54;20109;-72
2021/10/28 09:43:54;;;;;;;44.47;24.02;;;;;;;8.52;75.15;99287.59;2620063;54;20053;-73
2021/10/28 09:46:42;;;;;;;47.17;25.97;;;;;;;8.73;74.95;99284.41;2620227;54;20595;-73
2021/10/28 09:52:03;;;;;;;47.63;26.60;;;;;;;8.87;73.54;99281.91;2620017;39;20425;-75
2021/10/28 09:55:00;;;;;;;40.10;22.20;;;;;;;8.95;73.94;99283.69;2620527;54;20034;-73
2021/10/28 09:57:53;;;;;;;41.65;23.38;;;;;;;9.16;74.09;99280.47;2620450;54;20042;-72
2021/10/28 10:00:23;;;;;;;42.75;22.80;;;;;;;9.25;74.18;99275.97;2622209;39;20429;-70
2021/10/28 10:02:55;;;;;;;39.30;22.77;;;;;;;9.43;73.18;99277.38;2619198;54;20037;-72
2021/10/28 10:05:27;;;;;;;49.13;21.75;;;;;;;9.36;73.54;99279.06;2617215;47;20121;-72
2021/10/28 10:07:59;;;;;;;46.55;25.05;;;;;;;9.52;73.69;99278.16;2617417;47;20042;-71
2021/10/28 10:10:31;;;;;;;46.55;23.38;;;;;;;9.44;73.10;99275.56;2618151;54;20162;-71
2021/10/28 10:13:05;;;;;;;48.15;22.30;;;;;;;9.38;73.94;99269.13;2620488;54;20018;-71
2021/10/28 10:15:35;;;;;;;49.33;26.65;;;;;;;9.54;74.23;99278.78;2621761;39;20086;-70
2021/10/28 10:18:07;;;;;;;44.58;23.40;;;;;;;9.55;73.63;99267.25;2618770;54;20037;-72
2021/10/28 10:20:45;;;;;;;44.17;21.48;;;;;;;9.43;73.52;99264.19;2619166;39;20441;-72
2021/10/28 10:23:30;;;;;;;40.35;22.83;;;;;;;9.52;74.34;99264.97;2618692;39;20426;-72
2021/10/28 11:21:39;;;;;;;39.78;24.13;;;;;;;11.32;70.77;99208.47;2618440;54;20034;-71
2021/10/28 12:22:41;;;;;;;23.05;16.17;;;;;;;12.06;71.25;99098.72;2617335;47;20030;-70
2021/10/28 12:25:31;;;;;;;24.27;15.32;;;;;;;12.09;71.60;99101.78;2618011;54;20026;-71
2021/10/28 12:45:54;;;;;;;25.65;17.20;;;;;;;11.82;71.77;99094.66;2622100;39;20442;-69
2021/10/28 12:48:52;;;;;;;23.50;16.65;;;;;;;11.85;72.27;99081.06;2621540;47;20082;-69
2021/10/28 13:03:17;;;;;;;25.33;17.20;;;;;;;11.48;73.33;99085.63;2618629;54;20034;-67
2021/10/28 13:48:02;;;;;;;25.10;15.30;;;;;;;11.79;72.73;99050.00;2617829;54;20030;-69
2021/10/28 13:49:57;;;;;;;21.58;15.00;;;;;;;11.63;72.95;99051.09;2619890;39;20435;-68
2021/10/28 14:31:43;;;;;;;20.33;13.52;;;;;;;11.99;72.31;99042.19;2619092;54;20069;-69
2021/10/28 15:28:59;;;;;;;16.80;13.10;;;;;;;11.84;72.87;99013.19;2621150;39;20413;-68
2021/10/28 15:37:00;;;;;;;35.58;24.58;;;;;;;11.81;73.43;99008.25;2619236;54;20585;-68
2021/10/28 15:39:36;;;;;;;40.25;26.33;;;;;;;11.71;73.64;99010.41;2619509;54;20030;-70
2021/10/28 16:23:27;;;;;;;63.13;34.50;;;;;;;9.59;79.87;99003.75;2618759;54;20033;-67
2021/10/28 16:25:57;;;;;;;58.72;33.80;;;;;;;9.52;80.12;99011.59;2618649;54;20027;-68
2021/10/28 16:28:28;;;;;;;62.50;34.03;;;;;;;9.35;80.51;99015.41;2619109;54;20541;-68
2021/10/28 16:30:59;;;;;;;62.45;33.30;;;;;;;9.36;80.50;99015.22;2619077;39;20437;-69
2021/10/28 16:33:31;;;;;;;59.95;33.30;;;;;;;9.30;80.60;99017.72;2618428;54;20035;-69
2021/10/28 16:36:01;;;;;;;55.08;28.52;;;;;;;9.24;80.74;99014.00;2619020;54;20038;-69
2021/10/28 16:38:31;;;;;;;60.75;31.45;;;;;;;9.26;81.21;99016.44;2619772;54;20038;-70
2021/10/28 16:41:01;;;;;;;64.50;32.65;;;;;;;9.23;81.40;99012.38;2618744;39;20444;-69
2021/10/28 16:43:31;;;;;;;62.03;33.80;;;;;;;9.24;80.93;99013.19;2618980;39;20403;-69
2021/10/28 16:46:01;;;;;;;62.90;32.50;;;;;;;9.21;81.05;99010.91;2618924;54;20038;-69
2021/10/28 16:48:34;;;;;;;63.22;31.55;;;;;;;9.18;81.47;99012.06;2617438;47;20035;-68
2021/10/28 16:51:03;;;;;;;65.40;31.40;;;;;;;9.09;81.90;99016.59;2618230;54;20037;-68
2021/10/28 16:53:33;;;;;;;58.88;31.08;;;;;;;9.06;81.53;99019.59;2618533;54;20037;-69
2021/10/28 16:56:03;;;;;;;56.10;27.10;;;;;;;9.02;81.83;99007.78;2618391;54;20553;-69
2021/10/28 16:58:33;;;;;;;53.00;28.15;;;;;;;9.05;81.85;99014.50;2618281;54;20038;-69
2021/10/28 17:01:03;;;;;;;47.72;25.95;;;;;;;9.04;81.65;99008.41;2617602;47;20086;-69
2021/10/28 17:03:35;;;;;;;48.13;25.38;;;;;;;9.02;82.18;99012.19;2617684;54;20038;-69
2021/10/28 17:06:05;;;;;;;50.13;26.98;;;;;;;8.96;82.08;99008.47;2617728;54;20038;-69
2021/10/28 17:08:35;;;;;;;42.92;24.63;;;;;;;8.98;82.07;99005.66;2619199;54;20034;-70
2021/10/28 17:11:06;;;;;;;43.85;24.70;;;;;;;8.98;82.41;99010.91;2618508;39;20620;-69
2021/10/28 17:13:36;;;;;;;43.15;25.58;;;;;;;8.95;82.31;99008.66;2618823;54;20038;-69
2021/10/28 17:16:07;;;;;;;38.92;23.30;;;;;;;8.90;82.07;99007.38;2618492;54;20034;-69
2021/10/28 17:18:39;;;;;;;47.08;25.13;;;;;;;8.89;82.08;99007.53;2618585;54;20038;-69
2021/10/28 17:21:09;;;;;;;42.63;25.02;;;;;;;8.86;82.09;99011.34;2617699;47;20087;-69
2021/10/28 17:23:42;;;;;;;45.50;26.90;;;;;;;8.87;82.46;99015.63;2619092;54;20031;-70
2021/10/28 17:26:14;;;;;;;39.40;23.65;;;;;;;8.91;82.17;99018.72;2622074;54;20038;-70
2021/10/28 17:28:45;;;;;;;47.08;24.80;;;;;;;8.88;82.17;99019.91;2621992;39;20403;-69
2021/10/28 17:31:15;;;;;;;43.90;25.00;;;;;;;8.83;82.17;99016.16;2620776;39;20430;-69
2021/10/28 17:33:47;;;;;;;43.55;24.73;;;;;;;8.78;82.44;99021.97;2618028;47;20027;-68
2021/10/28 17:36:17;;;;;;;43.83;25.20;;;;;;;8.70;82.33;99013.28;2618710;39;20403;-69
2021/10/28 17:38:47;;;;;;;64.65;30.50;;;;;;;8.65;82.63;99012.00;2618474;39;20426;-70
2021/10/28 17:41:16;;;;;;;51.63;25.50;;;;;;;8.66;83.26;99012.81;2618073;54;20054;-69
2021/10/28 17:43:50;;;;;;;53.05;26.77;;;;;;;8.69;83.18;99015.09;2619265;39;20459;-69
2021/10/28 17:46:20;;;;;;;54.88;26.83;;;;;;;8.69;82.93;99012.44;2618966;54;20034;-69
2021/10/28 17:48:53;;;;;;;55.75;24.88;;;;;;;8.66;83.24;99004.91;2618709;54;20038;-69
2021/10/28 17:51:23;;;;;;;49.95;27.17;;;;;;;8.64;83.33;98999.81;2617953;54;20038;-69
2021/10/28 17:53:53;;;;;;;44.55;24.13;;;;;;;8.68;83.56;99002.91;2618006;54;20059;-68
2021/10/28 17:56:23;;;;;;;41.20;23.50;;;;;;;8.68;83.13;99000.28;2618230;54;20061;-68
2021/10/28 17:58:53;;;;;;;43.60;25.83;;;;;;;8.71;82.84;98999.94;2617982;54;20034;-69
2021/10/28 18:01:25;;;;;;;41.95;22.17;;;;;;;8.66;82.60;98997.81;2618792;54;20109;-68
2021/10/28 18:04:00;;;;;;;34.28;22.13;;;;;;;8.64;82.89;98998.97;2619215;54;20026;-68
2021/10/28 18:06:30;;;;;;;37.88;21.02;;;;;;;8.65;83.25;99003.25;2618461;46;20030;-69
2021/10/28 18:09:01;;;;;;;36.45;20.98;;;;;;;8.61;82.93;99002.81;2619548;39;20422;-70
2021/10/28 18:11:31;;;;;;;42.08;23.85;;;;;;;8.55;82.93;98997.41;2619558;54;20037;-68
2021/10/28 18:14:08;;;;;;;42.88;23.60;;;;;;;8.52;83.25;98998.56;2619255;46;20039;-69
2021/10/28 18:16:39;;;;;;;37.70;21.77;;;;;;;8.52;83.09;98997.75;2619723;54;20084;-68
2021/10/28 18:19:12;;;;;;;39.30;21.48;;;;;;;8.48;83.33;99001.72;2619172;47;20030;-69
2021/10/28 18:21:47;;;;;;;40.42;23.13;;;;;;;8.48;83.58;98991.19;2618596;46;20042;-69
2021/10/28 18:24:17;;;;;;;39.28;21.85;;;;;;;8.46;83.18;98990.56;2619645;54;20030;-69
2021/10/28 18:26:46;;;;;;;64.90;23.73;;;;;;;8.44;83.15;98990.72;2619957;54;20027;-69
2021/10/28 18:29:16;;;;;;;48.38;24.00;;;;;;;8.35;82.94;98987.28;2619798;54;20039;-69
2021/10/28 18:31:47;;;;;;;38.10;21.25;;;;;;;8.30;83.41;98986.97;2618917;54;20034;-69
2021/10/28 18:34:19;;;;;;;38.83;22.52;;;;;;;8.29;83.66;98985.34;2618875;54;20034;-70
2021/10/28 18:36:50;;;;;;;38.58;21.55;;;;;;;8.26;83.41;98976.97;2619700;54;20042;-69
2021/10/28 18:39:20;;;;;;;37.67;23.67;;;;;;;8.25;83.77;98970.88;2621574;54;20038;-74
2021/10/28 18:41:50;;;;;;;31.02;21.13;;;;;;;8.28;83.16;98970.53;2624844;47;20106;-74
2021/10/28 18:44:22;;;;;;;29.00;17.95;;;;;;;8.30;83.57;98973.00;2625981;54;20026;-75
2021/10/28 18:46:56;;;;;;;40.55;19.77;;;;;;;8.24;83.32;98963.97;2626466;54;20074;-74
2021/10/28 18:49:29;;;;;;;27.83;18.73;;;;;;;8.21;83.34;98972.22;2626938;54;20038;-72
2021/10/28 18:51:59;;;;;;;32.83;19.55;;;;;;;8.13;83.59;98967.81;2626590;54;20027;-73
2021/10/28 18:54:29;;;;;;;30.10;19.27;;;;;;;8.07;83.21;98965.88;2625631;54;20042;-73
2021/10/28 18:56:59;;;;;;;33.83;20.25;;;;;;;8.05;83.71;98961.78;2625666;54;20086;-74
2021/10/28 18:59:31;;;;;;;30.63;19.08;;;;;;;8.04;83.82;98968.00;2625841;54;20031;-73
2021/10/28 19:02:02;;;;;;;27.50;17.63;;;;;;;8.05;83.75;98962.59;2625836;54;20031;-74
2021/10/28 19:04:35;;;;;;;30.48;18.77;;;;;;;8.05;83.44;98962.59;2624858;54;20041;-72
2021/10/28 19:07:06;;;;;;;30.85;18.15;;;;;;;8.05;83.76;98959.97;2624249;47;20038;-71
2021/10/28 19:09:36;;;;;;;29.70;16.05;;;;;;;7.97;83.73;98956.56;2624523;54;20046;-75
2021/10/28 19:12:06;;;;;;;33.38;15.98;;;;;;;7.94;83.63;98949.81;2623838;47;20031;-71
2021/10/28 19:14:42;;;;;;;30.60;17.45;;;;;;;7.93;83.00;98943.72;2625769;54;20037;-74
2021/10/28 19:17:14;;;;;;;27.85;17.63;;;;;;;7.86;83.04;98936.69;2625261;47;20029;-73
2021/10/28 19:19:46;;;;;;;27.05;17.75;;;;;;;7.84;83.39;98930.78;2625432;47;20050;-75
2021/10/28 19:22:23;;;;;;;21.48;15.68;;;;;;;7.86;83.38;98931.41;2624756;54;20045;-73
2021/10/28 19:24:53;;;;;;;23.98;15.35;;;;;;;7.90;83.68;98930.09;2624731;50;20035;-73
2021/10/28 19:27:23;;;;;;;23.40;15.93;;;;;;;7.95;83.34;98928.56;2625821;54;20555;-73
2021/10/28 19:29:57;;;;;;;23.50;15.63;;;;;;;7.96;83.61;98924.16;2625458;54;20420;-72
2021/10/28 19:32:28;;;;;;;23.77;15.60;;;;;;;8.03;83.19;98917.19;2627037;39;20461;-73
2021/10/28 19:35:00;;;;;;;21.02;15.45;;;;;;;8.05;83.28;98915.19;2626017;39;20440;-71
2021/10/28 19:37:36;;;;;;;25.92;17.75;;;;;;;8.00;82.57;98917.53;2625534;54;20039;-72
2021/10/28 19:40:21;;;;;;;23.85;16.73;;;;;;;8.03;83.03;98914.53;2624650;54;20027;-72
2021/10/28 19:48:19;;;;;;;27.10;17.85;;;;;;;8.14;82.97;98922.06;2624171;46;20045;-71
2021/10/28 19:50:51;;;;;;;40.22;17.77;;;;;;;8.21;82.35;98918.75;2625602;47;20033;-72
2021/10/28 19:53:21;;;;;;;26.17;17.27;;;;;;;8.18;82.31;98930.44;2626164;54;20525;-72
2021/10/28 19:55:53;;;;;;;31.77;17.75;;;;;;;8.15;82.49;98934.22;2625008;54;20054;-72
2021/10/28 19:58:25;;;;;;;25.35;17.33;;;;;;;8.16;82.75;98933.25;2624674;54;20035;-72